Time;durP1;ratioP1;P1;durP2;ratioP2;P2;SDS_P1;SDS_P2;PMS_P1;PMS_P2;Temp;Humidity;BMP_temperature;BMP_pressure;BME280_temperature;BME280_humidity;BME280_pressure;Samples;Min_cycle;Max_cycle;Signal;HPM_P1;HPM_P2
2023/04/06 00:01:05;;;;;;;2.55;1.00;;;;;;;18.48;33.04;101702.06;16115296;19;130828;-47
2023/04/06 00:06:27;;;;;;;1.63;0.80;;;;;;;18.44;33.06;101705.31;16116913;19;129686;-44
2023/04/06 00:11:49;;;;;;;2.13;1.13;;;;;;;18.43;32.83;101692.53;16119311;19;129972;-46
2023/04/06 00:17:11;;;;;;;1.42;1.00;;;;;;;18.40;33.20;101687.44;16118477;19;130695;-46
2023/04/06 00:22:33;;;;;;;2.17;1.20;;;;;;;18.39;33.10;101690.41;16113630;19;131841;-45
2023/04/06 00:27:55;;;;;;;1.00;0.80;;;;;;;18.36;33.38;101677.00;16114498;19;130083;-46
2023/04/06 00:33:17;;;;;;;1.02;0.90;;;;;;;18.34;33.16;101673.59;16114834;19;130112;-47
2023/04/06 00:38:39;;;;;;;1.02;0.88;;;;;;;18.31;33.28;101661.06;16107965;19;130833;-43
2023/04/06 00:44:01;;;;;;;1.85;0.80;;;;;;;18.28;33.18;101667.06;16116599;19;129441;-44
2023/04/06 00:49:23;;;;;;;0.65;0.60;;;;;;;18.27;32.93;101665.34;16113713;19;131094;-50
2023/04/06 00:54:45;;;;;;;1.67;0.82;;;;;;;18.24;33.37;101654.72;16113707;19;130701;-45
2023/04/06 01:00:07;;;;;;;0.93;0.70;;;;;;;18.22;33.46;101656.84;16113542;19;129015;-44
2023/04/06 01:05:29;;;;;;;1.23;0.90;;;;;;;18.20;33.47;101648.78;16113666;19;129390;-47
2023/04/06 01:10:51;;;;;;;1.42;1.00;;;;;;;18.18;33.42;101648.16;16115822;19;129992;-44
2023/04/06 01:16:13;;;;;;;1.05;0.70;;;;;;;18.17;33.17;101637.31;16114235;19;129528;-49
2023/04/06 01:21:37;;;;;;;2.13;0.90;;;;;;;18.15;33.03;101626.47;16108899;19;130957;-46
2023/04/06 01:27:00;;;;;;;1.23;0.82;;;;;;;18.12;33.36;101616.69;16111142;19;130348;-44
2023/04/06 01:32:22;;;;;;;1.20;0.80;;;;;;;18.11;33.35;101622.47;16111438;19;129918;-46
2023/04/06 01:37:44;;;;;;;0.90;0.60;;;;;;;18.10;33.08;101621.59;16113432;19;130907;-47
2023/04/06 01:43:06;;;;;;;1.02;0.75;;;;;;;18.07;33.53;101613.75;16109693;19;129930;-45
2023/04/06 01:48:28;;;;;;;1.30;0.70;;;;;;;18.06;33.34;101601.00;16112328;19;130250;-46
2023/04/06 01:53:50;;;;;;;1.38;0.80;;;;;;;18.06;33.42;101603.75;16110440;19;129917;-46
2023/04/06 01:59:12;;;;;;;1.20;0.77;;;;;;;18.04;33.36;101589.28;16110553;19;129302;-49
2023/04/06 02:04:34;;;;;;;1.45;0.90;;;;;;;18.05;33.32;101596.53;16124275;19;130993;-44
2023/04/06 02:09:56;;;;;;;5.55;1.00;;;;;;;18.02;33.12;101588.66;16127012;19;129793;-44
2023/04/06 02:15:18;;;;;;;2.20;0.90;;;;;;;18.02;33.48;101580.34;16123760;19;129447;-46
2023/04/06 02:20:40;;;;;;;2.17;0.70;;;;;;;18.01;33.22;101575.88;16124330;19;131144;-46
2023/04/06 02:26:02;;;;;;;1.23;0.77;;;;;;;17.98;33.17;101571.66;16122579;19;131336;-46
2023/04/06 02:31:24;;;;;;;1.08;0.70;;;;;;;17.98;33.40;101568.03;16122169;19;129828;-45
2023/04/06 02:36:46;;;;;;;1.30;0.65;;;;;;;17.96;33.15;101567.44;16120848;19;132024;-45
2023/04/06 02:42:08;;;;;;;1.40;0.88;;;;;;;17.95;33.35;101557.44;16117358;19;131797;-48
2023/04/06 02:47:30;;;;;;;1.27;0.82;;;;;;;17.93;33.36;101560.41;16117726;19;130513;-47
2023/04/06 02:52:53;;;;;;;1.00;0.70;;;;;;;17.92;33.36;101546.81;16122850;19;129399;-46
2023/04/06 02:58:15;;;;;;;0.85;0.57;;;;;;;17.89;33.24;101542.56;16118229;19;131523;-46
2023/04/06 03:03:37;;;;;;;1.75;0.75;;;;;;;17.88;33.61;101546.41;16118651;19;129893;-46
2023/04/06 03:08:59;;;;;;;0.90;0.70;;;;;;;17.87;33.35;101544.72;16118042;19;130796;-48
2023/04/06 03:14:21;;;;;;;0.63;0.60;;;;;;;17.84;33.25;101534.94;16119626;19;130275;-45
2023/04/06 03:19:43;;;;;;;1.27;0.80;;;;;;;17.83;33.57;101537.94;16120697;19;129871;-45
2023/04/06 03:25:05;;;;;;;0.65;0.65;;;;;;;17.82;33.30;101539.88;16120313;19;129386;-46
2023/04/06 03:30:27;;;;;;;1.50;0.50;;;;;;;17.80;33.67;101528.16;16117301;19;130838;-47
2023/04/06 03:35:49;;;;;;;1.00;0.75;;;;;;;17.79;33.45;101526.47;16121264;19;130840;-46
2023/04/06 03:41:11;;;;;;;4.20;0.70;;;;;;;17.78;33.75;101521.16;16114737;19;131076;-47
2023/04/06 03:46:33;;;;;;;0.88;0.70;;;;;;;17.76;33.63;101510.31;16121969;19;130320;-44
2023/04/06 03:51:56;;;;;;;1.10;0.63;;;;;;;17.76;33.72;101510.31;16119860;19;130388;-45
2023/04/06 03:57:18;;;;;;;2.22;0.75;;;;;;;17.74;33.53;101506.91;16118530;19;130310;-46
2023/04/06 04:02:40;;;;;;;1.33;0.77;;;;;;;17.73;33.68;101505.22;16117845;19;132606;-44
2023/04/06 04:08:02;;;;;;;0.80;0.60;;;;;;;17.72;33.33;101514.63;16116656;19;133224;-45
2023/04/06 04:13:24;;;;;;;2.38;0.90;;;;;;;17.71;33.55;101506.53;16116263;19;129513;-46
2023/04/06 04:18:48;;;;;;;0.70;0.68;;;;;;;17.71;33.61;101517.59;16112442;19;130821;-46
2023/04/06 04:24:09;;;;;;;1.05;0.70;;;;;;;17.68;33.69;101511.44;16115451;19;129515;-46
2023/04/06 04:29:31;;;;;;;1.20;0.70;;;;;;;17.67;33.63;101515.28;16113197;19;130535;-47
2023/04/06 04:34:54;;;;;;;0.80;0.60;;;;;;;17.67;33.72;101508.91;16111520;19;130515;-50
2023/04/06 04:40:16;;;;;;;0.73;0.60;;;;;;;17.65;33.36;101511.03;16112228;19;130376;-46
2023/04/06 04:45:38;;;;;;;0.80;0.60;;;;;;;17.66;33.70;101512.75;16115894;19;129478;-45
2023/04/06 04:51:00;;;;;;;1.05;0.40;;;;;;;17.63;33.65;101513.19;16112157;19;131704;-45
2023/04/06 04:56:22;;;;;;;0.70;0.60;;;;;;;17.63;33.70;101513.19;16115880;19;131059;-49
2023/04/06 05:01:44;;;;;;;0.98;0.63;;;;;;;17.62;33.81;101514.25;16113868;19;130031;-51
2023/04/06 05:07:18;;;;;;;0.85;0.50;;;;;;;17.64;33.64;101518.50;16114695;19;130447;-51
2023/04/06 05:12:40;;;;;;;0.60;0.60;;;;;;;17.96;33.35;101521.19;16112829;19;129310;-53
2023/04/06 05:18:02;;;;;;;0.82;0.55;;;;;;;18.50;32.77;101514.28;16113397;19;134488;-51
2023/04/06 05:23:24;;;;;;;3.42;1.40;;;;;;;18.89;32.27;101514.88;16115106;19;130252;-47
2023/04/06 05:28:46;;;;;;;11.45;2.20;;;;;;;19.12;31.89;101510.50;16112161;19;130558;-50
2023/04/06 05:34:09;;;;;;;6.32;1.83;;;;;;;19.21;31.45;101511.88;16112332;19;129999;-43
2023/04/06 05:39:31;;;;;;;8.65;1.83;;;;;;;19.22;31.19;101508.03;16125706;19;130707;-44
2023/04/06 05:44:53;;;;;;;9.57;2.03;;;;;;;19.17;31.42;101510.66;16125558;19;131303;-47
2023/04/06 05:50:15;;;;;;;7.00;1.98;;;;;;;19.10;31.43;101501.56;16125877;19;129835;-44
2023/04/06 05:55:37;;;;;;;6.82;1.58;;;;;;;19.03;31.48;101494.19;16128710;19;129857;-44
2023/04/06 06:01:00;;;;;;;6.30;1.70;;;;;;;18.94;31.71;101517.78;16122913;19;129429;-41
2023/04/06 06:06:22;;;;;;;3.38;1.85;;;;;;;18.84;31.47;101509.16;16125451;19;129621;-45
2023/04/06 06:11:44;;;;;;;7.57;2.40;;;;;;;18.77;31.59;101509.25;16127375;19;129595;-44
2023/04/06 06:17:06;;;;;;;10.07;2.40;;;;;;;18.69;31.51;101513.22;16126907;19;129674;-44
2023/04/06 06:22:27;;;;;;;6.30;2.00;;;;;;;18.59;31.84;101502.66;16125471;19;130183;-45
2023/04/06 06:27:49;;;;;;;9.90;1.88;;;;;;;18.53;31.73;101511.06;16128082;19;129851;-41
2023/04/06 06:33:11;;;;;;;8.55;2.00;;;;;;;18.48;32.12;101510.88;16125459;19;129436;-44
2023/04/06 06:38:33;;;;;;;12.95;2.10;;;;;;;18.43;32.22;101512.44;16121527;19;129461;-48
2023/04/06 06:43:55;;;;;;;9.50;2.25;;;;;;;18.42;32.09;101507.13;16125039;19;129493;-44
2023/04/06 06:49:17;;;;;;;11.00;1.90;;;;;;;18.46;32.13;101514.75;16119403;19;129826;-42
2023/04/06 06:54:39;;;;;;;9.32;1.63;;;;;;;18.69;32.57;101510.44;16125523;19;129957;-44
2023/04/06 07:00:01;;;;;;;9.95;1.60;;;;;;;19.13;31.81;101499.19;16122328;19;129327;-46
2023/04/06 07:05:23;;;;;;;9.95;2.03;;;;;;;19.55;31.75;101501.13;16124573;19;129955;-47
2023/04/06 07:10:56;;;;;;;6.93;1.73;;;;;;;19.98;31.20;101486.06;16124915;19;130126;-43
2023/04/06 07:16:18;;;;;;;9.02;1.35;;;;;;;20.25;31.18;101499.47;16122483;19;130078;-47
2023/04/06 07:21:40;;;;;;;10.68;1.85;;;;;;;20.32;30.99;101498.50;16119573;19;129742;-43
2023/04/06 07:27:02;;;;;;;5.93;1.50;;;;;;;20.26;31.09;101503.94;16122428;19;134169;-47
2023/04/06 07:32:24;;;;;;;3.67;1.58;;;;;;;20.14;30.98;101501.16;16119414;19;131346;-44
2023/04/06 07:37:46;;;;;;;5.90;2.30;;;;;;;20.01;30.98;101498.63;16119541;19;130436;-46
2023/04/06 07:43:08;;;;;;;5.63;1.65;;;;;;;19.85;31.27;101505.72;16118648;19;129432;-44
2023/04/06 07:48:30;;;;;;;8.45;1.33;;;;;;;19.71;31.14;101507.91;16120449;19;130464;-43
2023/04/06 07:53:52;;;;;;;5.60;1.27;;;;;;;19.54;31.30;101513.31;16121172;19;131557;-47
2023/04/06 07:59:14;;;;;;;6.40;1.50;;;;;;;19.41;31.28;101510.75;16120926;19;129151;-44
2023/04/06 08:04:36;;;;;;;9.98;2.72;;;;;;;19.24;31.52;101508.63;16114579;19;129896;-45
2023/04/06 08:09:58;;;;;;;6.95;2.03;;;;;;;19.13;31.90;101504.72;16119305;19;129065;-49
2023/04/06 08:15:20;;;;;;;22.10;5.05;;;;;;;19.01;31.75;101507.44;16112071;19;129820;-43
2023/04/06 08:20:42;;;;;;;15.05;4.85;;;;;;;18.88;31.42;101515.94;16106772;19;129759;-45
2023/04/06 08:26:04;;;;;;;19.80;3.70;;;;;;;18.79;30.99;101514.59;16114537;19;129554;-44
2023/04/06 08:31:26;;;;;;;11.98;3.50;;;;;;;18.71;31.25;101518.50;16120301;19;131361;-48
2023/04/06 08:36:48;;;;;;;12.75;3.33;;;;;;;18.64;31.38;101515.00;16115973;19;129584;-47
2023/04/06 08:42:16;;;;;;;25.90;4.03;;;;;;;18.59;31.42;101507.34;16117821;19;129879;-47
2023/04/06 08:47:38;;;;;;;23.73;3.28;;;;;;;18.52;31.61;101506.59;16111593;19;129837;-46
2023/04/06 08:53:01;;;;;;;15.02;3.05;;;;;;;18.46;31.92;101503.66;16118096;19;129548;-43
2023/04/06 08:58:24;;;;;;;19.90;3.38;;;;;;;18.43;31.69;101500.50;16096367;19;132370;-47
2023/04/06 09:04:04;;;;;;;10.55;2.58;;;;;;;18.37;32.24;101513.31;16112613;19;129529;-43
2023/04/06 09:09:29;;;;;;;12.52;3.45;;;;;;;18.34;32.26;101513.78;16110220;19;129594;-45
2023/04/06 09:14:52;;;;;;;11.20;2.90;;;;;;;18.33;32.39;101512.13;16113307;19;130348;-44
2023/04/06 09:20:14;;;;;;;25.30;11.95;;;;;;;18.33;32.34;101505.72;16113900;19;130315;-43
2023/04/06 09:25:36;;;;;;;23.40;7.47;;;;;;;18.33;32.46;101514.88;16111480;19;129728;-49
2023/04/06 09:30:58;;;;;;;24.52;8.93;;;;;;;18.33;32.71;101506.56;16113300;19;129596;-42
2023/04/06 09:36:32;;;;;;;26.45;9.23;;;;;;;18.36;33.38;101502.47;16111349;19;129118;-48
2023/04/06 09:41:55;;;;;;;28.00;7.82;;;;;;;18.33;33.24;101502.94;16111822;19;130064;-43
2023/04/06 09:47:18;;;;;;;24.55;7.45;;;;;;;18.33;33.33;101502.94;16110762;19;129494;-45
2023/04/06 09:52:47;;;;;;;59.75;27.10;;;;;;;18.34;33.59;101499.09;16109234;19;130983;-43
2023/04/06 09:58:25;;;;;;;132.70;76.15;;;;;;;18.40;34.01;101495.44;16109606;19;130291;-43
2023/04/06 10:03:52;;;;;;;78.22;45.15;;;;;;;18.41;33.86;101484.13;16110067;19;129665;-45
2023/04/06 10:09:15;;;;;;;67.50;37.63;;;;;;;18.44;33.62;101482.81;16111425;19;129294;-43
2023/04/06 10:14:37;;;;;;;62.75;29.65;;;;;;;18.49;33.55;101473.78;16111900;19;129498;-45
2023/04/06 10:20:06;;;;;;;39.50;21.67;;;;;;;18.58;32.95;101477.97;16110557;19;129274;-44
2023/04/06 10:25:30;;;;;;;33.03;17.42;;;;;;;18.72;32.92;101473.91;16121557;19;129902;-45
2023/04/06 10:31:05;;;;;;;32.85;14.05;;;;;;;18.89;32.74;101470.50;16124416;19;130107;-47
2023/04/06 10:36:32;;;;;;;21.92;12.02;;;;;;;18.99;32.83;101461.63;16124304;19;131646;-44
2023/04/06 10:41:54;;;;;;;23.55;10.82;;;;;;;19.03;32.73;101452.59;16123806;19;129337;-45
2023/04/06 10:47:17;;;;;;;18.23;9.02;;;;;;;19.03;32.77;101451.75;16123008;19;129460;-45
2023/04/06 10:52:39;;;;;;;28.60;9.27;;;;;;;19.01;32.45;101435.34;16121536;19;130633;-44
2023/04/06 10:58:01;;;;;;;24.88;8.38;;;;;;;18.99;32.52;101445.81;16121358;19;129651;-44
2023/04/06 11:03:23;;;;;;;19.35;8.32;;;;;;;18.95;32.56;101438.22;16121023;19;129910;-49
2023/04/06 11:08:45;;;;;;;16.70;7.00;;;;;;;18.88;32.60;101439.19;16125138;19;130232;-49
2023/04/06 11:14:09;;;;;;;14.20;7.07;;;;;;;18.84;32.68;101439.84;16119614;19;130374;-46
2023/04/06 11:19:31;;;;;;;19.90;7.45;;;;;;;18.79;32.96;101428.66;16117044;19;131057;-44
2023/04/06 11:25:05;;;;;;;12.35;6.05;;;;;;;18.75;33.32;101434.66;16116043;19;129538;-46
2023/04/06 11:30:27;;;;;;;15.38;6.05;;;;;;;18.70;33.09;101434.53;16114896;19;130482;-45
2023/04/06 11:35:50;;;;;;;11.73;5.57;;;;;;;18.66;33.63;101427.75;16118855;19;130241;-44
2023/04/06 11:41:12;;;;;;;11.20;5.32;;;;;;;18.60;33.51;101412.06;16120387;19;130731;-47
2023/04/06 11:46:34;;;;;;;17.48;4.65;;;;;;;18.56;33.78;101403.38;16116664;19;132317;-47
2023/04/06 11:52:00;;;;;;;13.77;4.53;;;;;;;18.53;33.40;101387.19;16118290;19;129841;-46
2023/04/06 11:57:26;;;;;;;12.07;4.65;;;;;;;18.51;33.57;101389.38;16119946;19;129763;-46
2023/04/06 12:02:49;;;;;;;15.35;4.00;;;;;;;18.49;33.67;101387.91;16119170;19;129889;-46
2023/04/06 12:08:11;;;;;;;11.63;4.10;;;;;;;18.46;33.74;101392.00;16118582;19;129881;-43
2023/04/06 12:13:32;;;;;;;9.98;3.72;;;;;;;18.42;33.96;101386.09;16117087;19;130406;-46
2023/04/06 12:18:55;;;;;;;14.25;2.97;;;;;;;18.38;33.79;101378.44;16117882;19;129594;-44
2023/04/06 12:24:17;;;;;;;8.45;2.95;;;;;;;18.34;34.17;101389.13;16119234;19;130009;-44
2023/04/06 12:29:39;;;;;;;9.70;3.55;;;;;;;18.31;33.76;101375.78;16119883;19;129971;-44
2023/04/06 12:35:01;;;;;;;21.48;3.10;;;;;;;18.25;34.24;101357.31;16118986;19;129949;-45
2023/04/06 12:40:23;;;;;;;18.90;3.42;;;;;;;18.20;34.02;101357.16;16118168;19;129465;-44
2023/04/06 12:45:45;;;;;;;16.30;2.95;;;;;;;18.15;33.86;101358.72;16118329;19;130332;-45
2023/04/06 12:51:07;;;;;;;13.77;2.85;;;;;;;18.12;33.93;101359.16;16116933;19;129771;-45
2023/04/06 12:56:30;;;;;;;11.63;2.28;;;;;;;18.11;33.67;101349.16;16111681;19;130437;-48
2023/04/06 13:01:52;;;;;;;16.90;2.90;;;;;;;18.09;34.14;101348.53;16086527;19;131438;-45
2023/04/06 13:07:14;;;;;;;17.27;2.40;;;;;;;18.09;34.23;101337.47;16111017;19;129450;-46
2023/04/06 13:12:36;;;;;;;14.13;2.50;;;;;;;18.14;33.78;101334.84;16112600;19;130638;-49
2023/04/06 13:17:58;;;;;;;10.57;2.08;;;;;;;18.15;34.01;101336.56;16112856;19;129829;-49
2023/04/06 13:23:20;;;;;;;9.80;1.88;;;;;;;18.15;33.89;101330.19;16107758;19;131238;-45
2023/04/06 13:28:42;;;;;;;19.42;1.75;;;;;;;18.15;34.47;101325.47;16114710;19;131855;-48
2023/04/06 13:34:05;;;;;;;22.30;2.25;;;;;;;18.28;34.58;101323.59;16110954;19;130415;-46
2023/04/06 13:39:27;;;;;;;13.25;1.80;;;;;;;18.30;34.41;101321.44;16110983;19;133037;-46
2023/04/06 13:44:50;;;;;;;13.25;2.55;;;;;;;18.41;34.37;101317.03;16115041;19;129703;-48
2023/04/06 13:50:12;;;;;;;23.25;2.92;;;;;;;18.46;34.33;101319.97;16110822;19;129924;-46
2023/04/06 13:55:34;;;;;;;19.85;2.47;;;;;;;18.44;34.36;101306.38;16108655;19;130438;-43
2023/04/06 14:01:02;;;;;;;16.40;2.50;;;;;;;18.45;34.27;101313.59;16125208;19;129540;-44
2023/04/06 14:06:25;;;;;;;22.55;2.55;;;;;;;18.43;34.54;101314.91;16125740;19;130218;-44
2023/04/06 14:11:52;;;;;;;24.80;3.30;;;;;;;18.42;34.84;101308.53;16120702;19;129390;-45
2023/04/06 14:17:15;;;;;;;17.67;2.83;;;;;;;18.40;35.87;101305.13;16124063;19;130336;-43
2023/04/06 14:22:37;;;;;;;18.65;2.97;;;;;;;18.39;36.40;101299.81;16123910;19;130930;-46
2023/04/06 14:27:59;;;;;;;20.15;2.85;;;;;;;18.38;36.73;101295.34;16123617;19;129416;-44
2023/04/06 14:33:21;;;;;;;28.95;3.00;;;;;;;18.37;37.42;101291.72;16123412;19;131135;-47
2023/04/06 14:38:43;;;;;;;26.15;3.38;;;;;;;18.36;37.93;101287.25;16124799;19;130399;-46
2023/04/06 14:44:05;;;;;;;10.93;2.85;;;;;;;18.36;37.90;101290.03;16121908;19;129774;-50
2023/04/06 14:49:27;;;;;;;26.85;3.28;;;;;;;18.37;38.18;101277.88;16120547;19;129589;-48
2023/04/06 14:54:49;;;;;;;22.52;2.85;;;;;;;18.37;37.76;101282.56;16122133;19;129285;-47
2023/04/06 15:00:12;;;;;;;19.17;2.60;;;;;;;18.38;38.04;101279.56;16122691;19;130012;-45
2023/04/06 15:05:35;;;;;;;17.88;3.75;;;;;;;18.41;38.89;101268.06;16119314;19;130228;-46
2023/04/06 15:10:59;;;;;;;20.75;2.63;;;;;;;18.44;39.25;101273.13;16120342;19;130803;-46
2023/04/06 15:16:21;;;;;;;15.65;3.50;;;;;;;18.44;39.18;101267.59;16122011;19;129662;-43
2023/04/06 15:21:42;;;;;;;16.50;2.72;;;;;;;18.43;38.15;101265.91;16118933;19;129792;-48
2023/04/06 15:27:04;;;;;;;26.30;4.35;;;;;;;18.37;37.84;101252.94;16117134;19;129879;-46
2023/04/06 15:32:26;;;;;;;11.38;3.40;;;;;;;18.31;37.81;101251.13;16119440;19;130931;-45
2023/04/06 15:37:49;;;;;;;10.88;3.00;;;;;;;18.22;37.71;101246.97;16120105;19;131004;-45
2023/04/06 15:43:11;;;;;;;22.42;3.72;;;;;;;18.18;38.16;101252.16;16119031;19;130013;-45
2023/04/06 15:48:33;;;;;;;14.10;3.10;;;;;;;18.12;38.18;101237.31;16119364;19;129910;-45
2023/04/06 15:53:55;;;;;;;12.90;2.60;;;;;;;18.10;37.80;101241.41;16120561;19;130551;-46
2023/04/06 15:59:17;;;;;;;13.02;2.45;;;;;;;18.07;37.90;101245.50;16120379;19;130855;-45
2023/04/06 16:04:39;;;;;;;20.80;3.22;;;;;;;18.04;38.14;101240.44;16118374;19;129529;-44
2023/04/06 16:10:03;;;;;;;14.13;2.17;;;;;;;18.03;37.86;101246.22;16119345;19;129697;-45
2023/04/06 16:15:25;;;;;;;11.18;2.80;;;;;;;17.99;37.75;101237.50;16118632;19;130058;-47
2023/04/06 16:20:48;;;;;;;9.88;2.20;;;;;;;17.97;38.08;101246.06;16111390;19;130361;-44
2023/04/06 16:26:12;;;;;;;10.02;2.72;;;;;;;17.97;37.88;101242.47;16118161;19;130150;-43
2023/04/06 16:31:34;;;;;;;26.05;6.50;;;;;;;18.03;39.42;101233.22;16115188;19;131806;-44
2023/04/06 16:36:56;;;;;;;31.65;7.68;;;;;;;18.14;40.08;101235.19;16120782;19;129347;-41
2023/04/06 16:42:19;;;;;;;33.95;7.43;;;;;;;18.47;39.88;101238.56;16118518;19;130110;-46
2023/04/06 16:47:41;;;;;;;26.02;6.25;;;;;;;18.95;39.51;101228.38;16120370;19;129221;-48
2023/04/06 16:53:03;;;;;;;31.98;6.72;;;;;;;19.46;38.68;101231.47;16121888;19;130752;-49
2023/04/06 16:58:25;;;;;;;19.90;6.00;;;;;;;19.94;38.14;101229.38;16119417;19;129501;-50
2023/04/06 17:03:47;;;;;;;23.10;6.63;;;;;;;20.20;37.88;101221.56;16123455;19;133284;-50
2023/04/06 17:09:09;;;;;;;21.27;6.65;;;;;;;20.26;37.58;101226.13;16120049;19;130263;-53
2023/04/06 17:14:31;;;;;;;16.08;5.65;;;;;;;20.22;37.91;101222.16;16119547;19;130462;-51
2023/04/06 17:19:53;;;;;;;18.75;5.60;;;;;;;20.13;37.68;101223.66;16114391;19;129473;-50
2023/04/06 17:25:15;;;;;;;19.25;5.72;;;;;;;20.04;38.08;101230.72;16115193;19;129568;-49
2023/04/06 17:30:38;;;;;;;15.23;5.20;;;;;;;19.90;37.98;101225.41;16118374;19;129082;-49
2023/04/06 17:36:01;;;;;;;19.60;5.72;;;;;;;19.79;38.45;101237.41;16109023;19;132078;-47
2023/04/06 17:41:23;;;;;;;36.75;5.75;;;;;;;19.64;38.23;101233.22;16014456;19;138933;-50
2023/04/06 17:46:45;;;;;;;32.42;5.03;;;;;;;19.52;38.46;101227.69;16118784;19;130164;-53
2023/04/06 17:52:07;;;;;;;37.78;6.10;;;;;;;19.41;38.20;101231.34;16113604;19;134231;-49
2023/04/06 17:57:29;;;;;;;32.33;5.32;;;;;;;19.35;38.23;101230.41;16116138;19;131112;-50
2023/04/06 18:02:52;;;;;;;29.70;5.50;;;;;;;19.29;38.30;101233.28;16117510;19;129914;-48
2023/04/06 18:08:14;;;;;;;34.85;5.13;;;;;;;19.32;38.45;101236.41;16112988;19;130616;-46
2023/04/06 18:13:37;;;;;;;32.53;5.28;;;;;;;19.54;38.23;101235.81;16110728;19;130975;-47
2023/04/06 18:19:01;;;;;;;31.52;4.63;;;;;;;19.96;38.08;101238.31;16111208;19;129883;-45
2023/04/06 18:24:23;;;;;;;35.35;4.57;;;;;;;20.46;37.65;101235.91;16111497;19;129949;-47
2023/04/06 18:30:02;;;;;;;29.27;5.00;;;;;;;20.95;37.07;101253.97;16109367;19;131128;-46
2023/04/06 18:35:24;;;;;;;22.02;3.75;;;;;;;21.32;36.15;101248.69;16107936;19;129816;-48
2023/04/06 18:40:46;;;;;;;26.55;3.92;;;;;;;21.63;35.95;101256.63;16113965;19;129205;-46
2023/04/06 18:46:10;;;;;;;31.30;4.50;;;;;;;21.88;35.90;101264.44;16120966;19;130271;-44
2023/04/06 18:51:32;;;;;;;21.42;4.28;;;;;;;22.00;35.41;101263.44;16122546;19;129318;-48
2023/04/06 18:56:55;;;;;;;15.35;3.58;;;;;;;21.94;35.41;101277.34;16124026;19;130366;-43
2023/04/06 19:02:17;;;;;;;26.45;3.85;;;;;;;21.81;35.56;101278.56;16118499;19;129890;-48
2023/04/06 19:07:40;;;;;;;24.33;4.80;;;;;;;21.64;35.53;101266.66;16123159;19;130122;-48
2023/04/06 19:13:03;;;;;;;25.77;3.63;;;;;;;21.46;35.86;101276.16;16115728;19;130010;-47
2023/04/06 19:18:26;;;;;;;37.40;4.63;;;;;;;21.29;36.51;101288.16;16116342;19;130400;-44
2023/04/06 19:23:50;;;;;;;46.67;4.20;;;;;;;21.17;36.50;101290.19;16126971;19;132309;-45
2023/04/06 19:29:12;;;;;;;33.80;4.43;;;;;;;21.04;36.88;101296.97;16126685;19;130509;-44
2023/04/06 19:34:34;;;;;;;19.60;3.95;;;;;;;20.94;37.02;101305.09;16125886;19;130858;-45
2023/04/06 19:39:56;;;;;;;26.73;4.20;;;;;;;20.85;37.01;101308.31;16120938;19;129655;-46
2023/04/06 19:45:18;;;;;;;28.92;4.40;;;;;;;20.78;37.02;101310.44;16123168;19;129868;-43
2023/04/06 19:50:40;;;;;;;28.55;3.95;;;;;;;20.71;37.32;101312.50;16121217;19;130876;-44
2023/04/06 19:56:02;;;;;;;23.50;4.88;;;;;;;20.66;37.24;101320.75;16120441;19;131167;-47
2023/04/06 20:01:24;;;;;;;25.13;3.70;;;;;;;20.56;37.34;101325.00;16118335;19;130730;-47
2023/04/06 20:06:46;;;;;;;23.73;3.58;;;;;;;20.51;37.65;101333.28;16119349;19;129612;-44
2023/04/06 20:12:08;;;;;;;16.38;3.42;;;;;;;20.45;37.94;101343.47;16120825;19;129668;-45
2023/04/06 20:17:30;;;;;;;20.55;3.95;;;;;;;20.42;37.78;101351.44;16118849;19;130363;-45
2023/04/06 20:22:52;;;;;;;21.98;3.35;;;;;;;20.40;37.83;101348.06;16121902;19;129942;-44
2023/04/06 20:28:14;;;;;;;8.82;3.25;;;;;;;20.43;37.70;101365.09;16117066;19;130709;-44
2023/04/06 20:33:36;;;;;;;10.98;3.08;;;;;;;20.47;37.81;101362.66;16113833;19;129610;-42
2023/04/06 20:38:58;;;;;;;11.32;2.70;;;;;;;20.50;37.88;101362.16;16116840;19;130063;-45
2023/04/06 20:44:19;;;;;;;15.85;2.58;;;;;;;20.51;37.59;101357.44;16115679;19;129415;-46
2023/04/06 20:49:42;;;;;;;12.07;2.50;;;;;;;20.49;37.63;101360.47;16115748;19;132158;-47
2023/04/06 20:55:04;;;;;;;15.07;2.80;;;;;;;20.45;37.60;101367.59;16118070;19;131007;-46
2023/04/06 21:00:26;;;;;;;11.43;3.03;;;;;;;20.41;37.65;101360.88;16111931;19;129948;-46
2023/04/06 21:05:50;;;;;;;18.40;3.10;;;;;;;20.32;37.69;101362.34;16109836;19;130401;-44
2023/04/06 21:11:12;;;;;;;17.17;2.58;;;;;;;20.20;37.79;101363.22;16112360;19;129539;-42
2023/04/06 21:16:35;;;;;;;12.77;2.75;;;;;;;20.10;38.22;101368.56;16111865;19;130900;-47
2023/04/06 21:21:57;;;;;;;11.73;2.45;;;;;;;20.01;37.82;101370.06;16103964;19;129596;-45
2023/04/06 21:27:19;;;;;;;10.73;2.55;;;;;;;19.93;38.32;101369.31;16108805;19;129371;-46
2023/04/06 21:32:41;;;;;;;14.82;3.17;;;;;;;19.84;38.27;101368.84;16111763;19;130185;-45
2023/04/06 21:38:03;;;;;;;13.07;2.30;;;;;;;19.76;38.07;101360.88;16112753;19;129485;-46
2023/04/06 21:43:25;;;;;;;10.65;2.45;;;;;;;19.67;37.91;101368.75;16113959;19;129907;-44
2023/04/06 21:48:47;;;;;;;15.75;2.70;;;;;;;19.60;38.19;101372.75;16112947;19;135514;-48
2023/04/06 21:54:09;;;;;;;9.52;2.53;;;;;;;19.53;38.28;101372.88;16110888;19;131143;-47
2023/04/06 21:59:31;;;;;;;9.73;2.22;;;;;;;19.47;38.18;101379.38;16111621;19;131085;-46
2023/04/06 22:04:53;;;;;;;11.18;2.58;;;;;;;19.42;38.42;101382.03;16110638;19;129774;-47
2023/04/06 22:10:15;;;;;;;7.07;1.90;;;;;;;19.35;38.40;101385.75;16112282;19;129871;-46
2023/04/06 22:15:38;;;;;;;14.25;2.33;;;;;;;19.31;38.28;101381.78;16111417;19;129865;-46
2023/04/06 22:21:02;;;;;;;12.88;2.20;;;;;;;19.26;38.15;101378.88;16122498;19;130847;-48
2023/04/06 22:26:25;;;;;;;10.95;1.92;;;;;;;19.20;38.25;101377.03;16128300;19;129388;-49
2023/04/06 22:31:47;;;;;;;11.43;3.13;;;;;;;19.16;38.28;101379.44;16128685;19;136039;-47
2023/04/06 22:37:09;;;;;;;12.50;2.13;;;;;;;19.12;38.13;101383.78;16126136;19;130799;-49
2023/04/06 22:42:31;;;;;;;10.10;2.75;;;;;;;19.07;38.50;101376.19;16127236;19;130796;-45
2023/04/06 22:47:53;;;;;;;10.68;2.13;;;;;;;19.04;38.60;101387.75;16123371;19;129828;-46
2023/04/06 22:53:15;;;;;;;10.43;2.22;;;;;;;19.00;38.14;101386.53;16124679;19;129922;-48
2023/04/06 22:58:37;;;;;;;6.30;1.98;;;;;;;18.96;38.58;101385.28;16123018;19;130800;-45
2023/04/06 23:03:59;;;;;;;10.77;2.03;;;;;;;18.94;38.13;101381.94;16119625;19;131063;-45
2023/04/06 23:09:21;;;;;;;9.02;1.80;;;;;;;18.90;38.29;101386.25;16122109;19;129619;-44
2023/04/06 23:14:43;;;;;;;6.00;2.05;;;;;;;18.86;38.49;101388.66;16125827;19;131714;-47
2023/04/06 23:20:06;;;;;;;7.38;2.00;;;;;;;18.84;38.24;101398.28;16126122;19;129766;-45
2023/04/06 23:25:27;;;;;;;11.88;2.03;;;;;;;18.80;38.23;101406.22;16121738;19;130454;-45
2023/04/06 23:30:49;;;;;;;7.53;1.98;;;;;;;18.77;38.35;101398.38;16122690;19;129565;-45
2023/04/06 23:36:11;;;;;;;8.73;2.03;;;;;;;18.74;38.21;101401.63;16122750;19;131201;-47
2023/04/06 23:41:34;;;;;;;9.00;2.00;;;;;;;18.71;38.20;101396.56;16118010;19;130205;-46
2023/04/06 23:46:56;;;;;;;7.35;1.95;;;;;;;18.69;38.30;101410.66;16119700;19;129607;-45
2023/04/06 23:52:18;;;;;;;6.63;1.90;;;;;;;18.67;38.31;101411.97;16119484;19;131475;-45
2023/04/06 23:57:40;;;;;;;5.80;1.50;;;;;;;18.64;38.32;101418.81;16118945;19;130224;-49
